sensor_id;sensor_type;location;lat;lon;timestamp;P1;durP1;ratioP1;P2;durP2;ratioP2
66581;SDS011;53438;48.898;2.308;2023-05-10T03:02:36;2.60;;;0.40;;
66581;SDS011;53438;48.898;2.308;2023-05-10T03:05:01;3.20;;;0.40;;
66581;SDS011;53438;48.898;2.308;2023-05-10T03:07:28;2.83;;;0.40;;
66581;SDS011;53438;48.898;2.308;2023-05-10T03:09:54;2.23;;;0.40;;
66581;SDS011;53438;48.898;2.308;2023-05-10T03:17:41;4.80;;;0.63;;
66581;SDS011;53438;48.898;2.308;2023-05-10T03:20:31;3.95;;;0.65;;
66581;SDS011;53438;48.898;2.308;2023-05-10T03:23:07;3.33;;;0.60;;
66581;SDS011;53438;48.898;2.308;2023-05-10T03:25:37;3.13;;;0.70;;
66581;SDS011;53438;48.898;2.308;2023-05-10T03:28:02;3.15;;;0.45;;
66581;SDS011;53438;48.898;2.308;2023-05-10T03:30:29;3.00;;;0.77;;
66581;SDS011;53438;48.898;2.308;2023-05-10T03:32:56;2.75;;;0.60;;
66581;SDS011;53438;48.898;2.308;2023-05-10T03:35:21;2.73;;;0.40;;
66581;SDS011;53438;48.898;2.308;2023-05-10T03:37:48;1.98;;;0.40;;
66581;SDS011;53438;48.898;2.308;2023-05-10T03:40:13;3.70;;;0.60;;
66581;SDS011;53438;48.898;2.308;2023-05-10T03:42:39;2.90;;;0.50;;
66581;SDS011;53438;48.898;2.308;2023-05-10T03:45:05;2.57;;;0.57;;
66581;SDS011;53438;48.898;2.308;2023-05-10T03:47:31;3.10;;;0.60;;
66581;SDS011;53438;48.898;2.308;2023-05-10T03:49:57;5.90;;;0.93;;
66581;SDS011;53438;48.898;2.308;2023-05-10T03:52:22;2.93;;;0.53;;
66581;SDS011;53438;48.898;2.308;2023-05-10T03:54:47;3.77;;;0.47;;
66581;SDS011;53438;48.898;2.308;2023-05-10T03:57:13;2.63;;;0.60;;
66581;SDS011;53438;48.898;2.308;2023-05-10T03:59:38;4.47;;;0.70;;
66581;SDS011;53438;48.898;2.308;2023-05-10T04:02:03;2.63;;;0.50;;
66581;SDS011;53438;48.898;2.308;2023-05-10T04:04:29;1.85;;;0.40;;
66581;SDS011;53438;48.898;2.308;2023-05-10T04:06:54;1.07;;;0.40;;
66581;SDS011;53438;48.898;2.308;2023-05-10T04:09:20;3.80;;;0.57;;
66581;SDS011;53438;48.898;2.308;2023-05-10T04:11:45;3.80;;;0.73;;
66581;SDS011;53438;48.898;2.308;2023-05-10T04:14:10;4.00;;;0.70;;
66581;SDS011;53438;48.898;2.308;2023-05-10T04:16:36;2.77;;;0.60;;
66581;SDS011;53438;48.898;2.308;2023-05-10T04:19:01;2.30;;;0.40;;
66581;SDS011;53438;48.898;2.308;2023-05-10T04:21:26;3.73;;;0.60;;
66581;SDS011;53438;48.898;2.308;2023-05-10T04:23:51;2.35;;;0.40;;
66581;SDS011;53438;48.898;2.308;2023-05-10T04:26:17;1.87;;;0.60;;
66581;SDS011;53438;48.898;2.308;2023-05-10T04:28:42;1.80;;;0.50;;
66581;SDS011;53438;48.898;2.308;2023-05-10T04:31:08;3.50;;;0.70;;
66581;SDS011;53438;48.898;2.308;2023-05-10T04:33:34;3.40;;;0.70;;
66581;SDS011;53438;48.898;2.308;2023-05-10T04:36:01;2.58;;;0.52;;
66581;SDS011;53438;48.898;2.308;2023-05-10T04:38:26;7.47;;;0.70;;
66581;SDS011;53438;48.898;2.308;2023-05-10T04:40:53;3.30;;;1.00;;
66581;SDS011;53438;48.898;2.308;2023-05-10T04:43:19;1.60;;;0.60;;
66581;SDS011;53438;48.898;2.308;2023-05-10T04:45:45;7.90;;;1.20;;
66581;SDS011;53438;48.898;2.308;2023-05-10T04:48:10;2.45;;;0.70;;
66581;SDS011;53438;48.898;2.308;2023-05-10T04:50:36;2.43;;;0.67;;
66581;SDS011;53438;48.898;2.308;2023-05-10T04:53:01;4.33;;;0.87;;
66581;SDS011;53438;48.898;2.308;2023-05-10T04:55:27;3.72;;;1.17;;
66581;SDS011;53438;48.898;2.308;2023-05-10T04:57:52;4.20;;;1.03;;
66581;SDS011;53438;48.898;2.308;2023-05-10T05:00:20;5.90;;;0.93;;
66581;SDS011;53438;48.898;2.308;2023-05-10T05:02:45;6.30;;;1.43;;
66581;SDS011;53438;48.898;2.308;2023-05-10T05:05:11;3.47;;;1.00;;
66581;SDS011;53438;48.898;2.308;2023-05-10T05:07:37;4.32;;;1.40;;
66581;SDS011;53438;48.898;2.308;2023-05-10T05:10:03;3.58;;;1.60;;
66581;SDS011;53438;48.898;2.308;2023-05-10T05:12:30;5.38;;;1.20;;
66581;SDS011;53438;48.898;2.308;2023-05-10T05:14:55;3.20;;;0.80;;
66581;SDS011;53438;48.898;2.308;2023-05-10T05:17:21;2.43;;;1.10;;
66581;SDS011;53438;48.898;2.308;2023-05-10T05:19:46;3.00;;;0.93;;
66581;SDS011;53438;48.898;2.308;2023-05-10T05:22:12;4.03;;;1.60;;
66581;SDS011;53438;48.898;2.308;2023-05-10T05:24:37;5.77;;;1.53;;
66581;SDS011;53438;48.898;2.308;2023-05-10T05:27:03;4.07;;;1.00;;
66581;SDS011;53438;48.898;2.308;2023-05-10T05:29:29;2.13;;;1.10;;
66581;SDS011;53438;48.898;2.308;2023-05-10T05:31:54;3.23;;;0.90;;
66581;SDS011;53438;48.898;2.308;2023-05-10T05:34:20;2.07;;;1.00;;
66581;SDS011;53438;48.898;2.308;2023-05-10T05:36:46;4.22;;;1.35;;
66581;SDS011;53438;48.898;2.308;2023-05-10T05:39:11;9.60;;;2.27;;
66581;SDS011;53438;48.898;2.308;2023-05-10T05:41:37;5.30;;;1.27;;
66581;SDS011;53438;48.898;2.308;2023-05-10T05:44:02;4.97;;;1.33;;
66581;SDS011;53438;48.898;2.308;2023-05-10T05:46:27;3.88;;;1.58;;
66581;SDS011;53438;48.898;2.308;2023-05-10T05:48:53;4.20;;;1.30;;
66581;SDS011;53438;48.898;2.308;2023-05-10T05:51:18;4.27;;;1.33;;
66581;SDS011;53438;48.898;2.308;2023-05-10T05:53:44;3.47;;;1.40;;
66581;SDS011;53438;48.898;2.308;2023-05-10T05:56:09;7.13;;;1.80;;
66581;SDS011;53438;48.898;2.308;2023-05-10T05:58:34;3.37;;;1.50;;
66581;SDS011;53438;48.898;2.308;2023-05-10T06:01:00;5.53;;;1.52;;
66581;SDS011;53438;48.898;2.308;2023-05-10T06:03:26;5.47;;;1.53;;
66581;SDS011;53438;48.898;2.308;2023-05-10T06:05:51;6.80;;;1.90;;
66581;SDS011;53438;48.898;2.308;2023-05-10T06:08:16;7.83;;;1.90;;
66581;SDS011;53438;48.898;2.308;2023-05-10T06:10:42;7.20;;;1.73;;
66581;SDS011;53438;48.898;2.308;2023-05-10T06:13:07;6.17;;;2.00;;
66581;SDS011;53438;48.898;2.308;2023-05-10T06:15:33;9.03;;;2.00;;
66581;SDS011;53438;48.898;2.308;2023-05-10T06:17:58;7.93;;;1.93;;
66581;SDS011;53438;48.898;2.308;2023-05-10T06:20:23;6.43;;;1.90;;
66581;SDS011;53438;48.898;2.308;2023-05-10T06:22:49;5.07;;;1.60;;
66581;SDS011;53438;48.898;2.308;2023-05-10T06:25:14;6.33;;;1.87;;
66581;SDS011;53438;48.898;2.308;2023-05-10T06:27:39;4.78;;;2.50;;
66581;SDS011;53438;48.898;2.308;2023-05-10T06:30:05;6.03;;;2.10;;
66581;SDS011;53438;48.898;2.308;2023-05-10T06:32:31;7.37;;;1.90;;
66581;SDS011;53438;48.898;2.308;2023-05-10T06:34:56;11.27;;;2.20;;
66581;SDS011;53438;48.898;2.308;2023-05-10T06:37:22;6.57;;;2.83;;
66581;SDS011;53438;48.898;2.308;2023-05-10T06:39:47;12.80;;;2.23;;
66581;SDS011;53438;48.898;2.308;2023-05-10T06:42:12;10.63;;;2.97;;
66581;SDS011;53438;48.898;2.308;2023-05-10T06:44:38;7.20;;;2.37;;
66581;SDS011;53438;48.898;2.308;2023-05-10T06:47:03;9.40;;;2.50;;
66581;SDS011;53438;48.898;2.308;2023-05-10T06:49:28;9.43;;;2.47;;
66581;SDS011;53438;48.898;2.308;2023-05-10T06:51:55;6.57;;;2.47;;
66581;SDS011;53438;48.898;2.308;2023-05-10T06:54:21;8.33;;;2.60;;
66581;SDS011;53438;48.898;2.308;2023-05-10T06:56:46;7.05;;;2.30;;
66581;SDS011;53438;48.898;2.308;2023-05-10T06:59:11;9.20;;;2.10;;
66581;SDS011;53438;48.898;2.308;2023-05-10T07:01:38;7.07;;;2.55;;
66581;SDS011;53438;48.898;2.308;2023-05-10T07:04:03;13.40;;;2.77;;
66581;SDS011;53438;48.898;2.308;2023-05-10T07:06:29;9.03;;;2.73;;
66581;SDS011;53438;48.898;2.308;2023-05-10T07:08:54;11.90;;;2.37;;
66581;SDS011;53438;48.898;2.308;2023-05-10T07:11:20;8.40;;;2.45;;
66581;SDS011;53438;48.898;2.308;2023-05-10T07:13:45;8.57;;;2.40;;
66581;SDS011;53438;48.898;2.308;2023-05-10T07:16:11;9.40;;;2.47;;
66581;SDS011;53438;48.898;2.308;2023-05-10T07:18:37;6.15;;;2.55;;
66581;SDS011;53438;48.898;2.308;2023-05-10T07:21:02;7.70;;;3.33;;
66581;SDS011;53438;48.898;2.308;2023-05-10T07:23:28;8.63;;;3.63;;
66581;SDS011;53438;48.898;2.308;2023-05-10T07:25:53;9.33;;;3.20;;
66581;SDS011;53438;48.898;2.308;2023-05-10T07:28:18;8.97;;;3.40;;
66581;SDS011;53438;48.898;2.308;2023-05-10T07:30:44;10.80;;;3.80;;
66581;SDS011;53438;48.898;2.308;2023-05-10T07:33:10;10.40;;;3.30;;
66581;SDS011;53438;48.898;2.308;2023-05-10T07:35:38;9.35;;;4.05;;
66581;SDS011;53438;48.898;2.308;2023-05-10T07:38:03;12.37;;;3.83;;
66581;SDS011;53438;48.898;2.308;2023-05-10T07:40:28;12.37;;;4.27;;
66581;SDS011;53438;48.898;2.308;2023-05-10T07:42:54;8.90;;;3.65;;
66581;SDS011;53438;48.898;2.308;2023-05-10T07:45:20;8.27;;;2.83;;
66581;SDS011;53438;48.898;2.308;2023-05-10T07:47:45;10.95;;;3.25;;
66581;SDS011;53438;48.898;2.308;2023-05-10T07:50:11;9.77;;;3.33;;
66581;SDS011;53438;48.898;2.308;2023-05-10T07:52:36;9.87;;;3.37;;
66581;SDS011;53438;48.898;2.308;2023-05-10T07:55:02;9.63;;;3.30;;
66581;SDS011;53438;48.898;2.308;2023-05-10T07:57:27;9.23;;;3.30;;
66581;SDS011;53438;48.898;2.308;2023-05-10T07:59:53;7.85;;;2.95;;
66581;SDS011;53438;48.898;2.308;2023-05-10T08:02:18;13.67;;;3.90;;
66581;SDS011;53438;48.898;2.308;2023-05-10T08:04:43;14.63;;;4.10;;
66581;SDS011;53438;48.898;2.308;2023-05-10T08:07:08;13.17;;;4.00;;
66581;SDS011;53438;48.898;2.308;2023-05-10T08:09:34;13.20;;;5.00;;
66581;SDS011;53438;48.898;2.308;2023-05-10T08:11:59;11.27;;;4.83;;
66581;SDS011;53438;48.898;2.308;2023-05-10T08:14:25;16.00;;;4.97;;
66581;SDS011;53438;48.898;2.308;2023-05-10T08:16:51;11.65;;;5.80;;
66581;SDS011;53438;48.898;2.308;2023-05-10T08:19:18;15.60;;;6.10;;
66581;SDS011;53438;48.898;2.308;2023-05-10T08:21:46;15.68;;;5.97;;
66581;SDS011;53438;48.898;2.308;2023-05-10T08:24:11;15.07;;;5.80;;
66581;SDS011;53438;48.898;2.308;2023-05-10T08:26:36;12.87;;;5.40;;
66581;SDS011;53438;48.898;2.308;2023-05-10T08:29:02;15.10;;;5.85;;
66581;SDS011;53438;48.898;2.308;2023-05-10T08:31:27;17.02;;;8.00;;
66581;SDS011;53438;48.898;2.308;2023-05-10T08:33:53;15.47;;;5.80;;
66581;SDS011;53438;48.898;2.308;2023-05-10T08:36:18;18.50;;;5.43;;
66581;SDS011;53438;48.898;2.308;2023-05-10T08:38:50;12.95;;;5.68;;
66581;SDS011;53438;48.898;2.308;2023-05-10T08:41:16;8.95;;;4.50;;
66581;SDS011;53438;48.898;2.308;2023-05-10T08:43:44;10.33;;;4.50;;
66581;SDS011;53438;48.898;2.308;2023-05-10T08:46:11;13.18;;;4.35;;
66581;SDS011;53438;48.898;2.308;2023-05-10T08:48:41;13.40;;;4.80;;
66581;SDS011;53438;48.898;2.308;2023-05-10T08:51:08;12.32;;;4.25;;
66581;SDS011;53438;48.898;2.308;2023-05-10T08:53:34;13.45;;;4.75;;
66581;SDS011;53438;48.898;2.308;2023-05-10T08:56:02;16.07;;;4.53;;
66581;SDS011;53438;48.898;2.308;2023-05-10T08:58:27;13.18;;;4.55;;
66581;SDS011;53438;48.898;2.308;2023-05-10T09:00:52;15.97;;;5.20;;
66581;SDS011;53438;48.898;2.308;2023-05-10T09:03:18;11.80;;;4.30;;
66581;SDS011;53438;48.898;2.308;2023-05-10T09:05:43;14.03;;;5.00;;
66581;SDS011;53438;48.898;2.308;2023-05-10T09:08:09;15.70;;;5.65;;
66581;SDS011;53438;48.898;2.308;2023-05-10T09:10:37;15.02;;;5.93;;
66581;SDS011;53438;48.898;2.308;2023-05-10T09:13:04;11.50;;;4.38;;
66581;SDS011;53438;48.898;2.308;2023-05-10T09:15:30;15.10;;;5.83;;
66581;SDS011;53438;48.898;2.308;2023-05-10T09:17:55;15.57;;;4.80;;
66581;SDS011;53438;48.898;2.308;2023-05-10T09:20:22;13.90;;;4.38;;
66581;SDS011;53438;48.898;2.308;2023-05-10T09:22:48;16.97;;;5.50;;
66581;SDS011;53438;48.898;2.308;2023-05-10T09:25:14;15.10;;;4.38;;
66581;SDS011;53438;48.898;2.308;2023-05-10T09:27:43;15.23;;;4.63;;
66581;SDS011;53438;48.898;2.308;2023-05-10T09:30:10;15.52;;;5.22;;
66581;SDS011;53438;48.898;2.308;2023-05-10T09:32:41;14.98;;;4.90;;
66581;SDS011;53438;48.898;2.308;2023-05-10T09:35:11;16.38;;;4.60;;
66581;SDS011;53438;48.898;2.308;2023-05-10T09:37:38;20.35;;;4.78;;
66581;SDS011;53438;48.898;2.308;2023-05-10T09:40:06;20.43;;;5.17;;
66581;SDS011;53438;48.898;2.308;2023-05-10T09:42:42;23.17;;;5.38;;
66581;SDS011;53438;48.898;2.308;2023-05-10T09:45:15;22.85;;;5.70;;
66581;SDS011;53438;48.898;2.308;2023-05-10T09:47:40;17.27;;;4.87;;
66581;SDS011;53438;48.898;2.308;2023-05-10T09:50:06;20.47;;;5.63;;
66581;SDS011;53438;48.898;2.308;2023-05-10T09:52:45;19.33;;;5.03;;
66581;SDS011;53438;48.898;2.308;2023-05-10T09:55:16;19.98;;;6.43;;
66581;SDS011;53438;48.898;2.308;2023-05-10T09:57:42;23.33;;;6.33;;
66581;SDS011;53438;48.898;2.308;2023-05-10T10:00:08;16.83;;;5.10;;
66581;SDS011;53438;48.898;2.308;2023-05-10T10:02:35;17.80;;;4.80;;
66581;SDS011;53438;48.898;2.308;2023-05-10T10:05:01;20.75;;;5.03;;
66581;SDS011;53438;48.898;2.308;2023-05-10T10:07:30;15.77;;;5.00;;
66581;SDS011;53438;48.898;2.308;2023-05-10T10:09:56;22.45;;;5.25;;
66581;SDS011;53438;48.898;2.308;2023-05-10T10:12:23;19.52;;;5.03;;
66581;SDS011;53438;48.898;2.308;2023-05-10T10:14:50;15.47;;;4.50;;
66581;SDS011;53438;48.898;2.308;2023-05-10T10:17:16;24.42;;;5.00;;
66581;SDS011;53438;48.898;2.308;2023-05-10T10:19:42;23.35;;;5.43;;
66581;SDS011;53438;48.898;2.308;2023-05-10T10:22:07;16.50;;;4.43;;
66581;SDS011;53438;48.898;2.308;2023-05-10T10:24:35;19.25;;;4.93;;
66581;SDS011;53438;48.898;2.308;2023-05-10T10:27:14;20.20;;;5.18;;
66581;SDS011;53438;48.898;2.308;2023-05-10T10:29:45;22.90;;;5.05;;
66581;SDS011;53438;48.898;2.308;2023-05-10T10:34:55;20.83;;;5.53;;
66581;SDS011;53438;48.898;2.308;2023-05-10T10:37:22;14.60;;;4.93;;
66581;SDS011;53438;48.898;2.308;2023-05-10T10:39:48;18.60;;;5.47;;
66581;SDS011;53438;48.898;2.308;2023-05-10T10:42:15;18.38;;;5.40;;
66581;SDS011;53438;48.898;2.308;2023-05-10T10:45:11;17.10;;;5.10;;
66581;SDS011;53438;48.898;2.308;2023-05-10T10:47:37;17.55;;;5.60;;
66581;SDS011;53438;48.898;2.308;2023-05-10T10:50:06;16.03;;;5.10;;
66581;SDS011;53438;48.898;2.308;2023-05-10T10:52:39;15.35;;;5.38;;
66581;SDS011;53438;48.898;2.308;2023-05-10T10:57:50;18.38;;;5.13;;
66581;SDS011;53438;48.898;2.308;2023-05-10T11:02:51;18.47;;;5.17;;
66581;SDS011;53438;48.898;2.308;2023-05-10T11:05:34;22.92;;;4.63;;
66581;SDS011;53438;48.898;2.308;2023-05-10T11:08:10;23.73;;;6.25;;
66581;SDS011;53438;48.898;2.308;2023-05-10T11:13:41;18.80;;;4.65;;
66581;SDS011;53438;48.898;2.308;2023-05-10T11:16:15;16.73;;;4.60;;
66581;SDS011;53438;48.898;2.308;2023-05-10T11:19:03;16.35;;;4.57;;
66581;SDS011;53438;48.898;2.308;2023-05-10T11:21:30;17.75;;;5.13;;
66581;SDS011;53438;48.898;2.308;2023-05-10T11:23:58;18.25;;;4.88;;
66581;SDS011;53438;48.898;2.308;2023-05-10T11:26:25;17.55;;;4.97;;
66581;SDS011;53438;48.898;2.308;2023-05-10T11:28:54;16.93;;;4.10;;
66581;SDS011;53438;48.898;2.308;2023-05-10T11:31:20;11.18;;;3.67;;
66581;SDS011;53438;48.898;2.308;2023-05-10T11:33:47;16.27;;;4.40;;
66581;SDS011;53438;48.898;2.308;2023-05-10T11:36:17;16.25;;;3.88;;
66581;SDS011;53438;48.898;2.308;2023-05-10T11:38:45;13.40;;;4.55;;
66581;SDS011;53438;48.898;2.308;2023-05-10T11:41:11;12.57;;;3.63;;
66581;SDS011;53438;48.898;2.308;2023-05-10T11:43:40;17.17;;;4.18;;
66581;SDS011;53438;48.898;2.308;2023-05-10T11:46:07;18.70;;;4.73;;
66581;SDS011;53438;48.898;2.308;2023-05-10T11:48:34;13.75;;;4.55;;
66581;SDS011;53438;48.898;2.308;2023-05-10T11:51:00;14.57;;;4.03;;
66581;SDS011;53438;48.898;2.308;2023-05-10T11:53:27;16.40;;;3.72;;
66581;SDS011;53438;48.898;2.308;2023-05-10T11:55:52;17.85;;;4.20;;
66581;SDS011;53438;48.898;2.308;2023-05-10T11:58:18;15.57;;;3.90;;
66581;SDS011;53438;48.898;2.308;2023-05-10T12:00:44;8.85;;;3.08;;
66581;SDS011;53438;48.898;2.308;2023-05-10T12:03:10;17.63;;;3.65;;
66581;SDS011;53438;48.898;2.308;2023-05-10T12:05:36;13.33;;;4.13;;
66581;SDS011;53438;48.898;2.308;2023-05-10T12:08:14;17.05;;;4.25;;
66581;SDS011;53438;48.898;2.308;2023-05-10T12:10:40;13.33;;;3.30;;
66581;SDS011;53438;48.898;2.308;2023-05-10T12:13:13;16.77;;;4.80;;
66581;SDS011;53438;48.898;2.308;2023-05-10T12:15:39;13.25;;;5.85;;
66581;SDS011;53438;48.898;2.308;2023-05-10T12:18:05;19.80;;;4.28;;
66581;SDS011;53438;48.898;2.308;2023-05-10T12:20:30;11.32;;;3.22;;
66581;SDS011;53438;48.898;2.308;2023-05-10T12:22:57;14.53;;;4.10;;
66581;SDS011;53438;48.898;2.308;2023-05-10T12:25:24;14.02;;;3.78;;
66581;SDS011;53438;48.898;2.308;2023-05-10T12:27:56;14.30;;;3.30;;
66581;SDS011;53438;48.898;2.308;2023-05-10T12:30:23;12.13;;;2.73;;
66581;SDS011;53438;48.898;2.308;2023-05-10T12:32:50;11.50;;;2.78;;
66581;SDS011;53438;48.898;2.308;2023-05-10T12:35:16;12.45;;;3.47;;
66581;SDS011;53438;48.898;2.308;2023-05-10T12:37:42;9.15;;;2.80;;
66581;SDS011;53438;48.898;2.308;2023-05-10T12:40:09;7.75;;;2.67;;
66581;SDS011;53438;48.898;2.308;2023-05-10T12:42:36;10.85;;;2.97;;
66581;SDS011;53438;48.898;2.308;2023-05-10T12:45:03;11.77;;;3.97;;
66581;SDS011;53438;48.898;2.308;2023-05-10T12:47:29;8.23;;;2.83;;
66581;SDS011;53438;48.898;2.308;2023-05-10T12:49:55;9.23;;;2.60;;
66581;SDS011;53438;48.898;2.308;2023-05-10T12:52:20;12.55;;;3.22;;
66581;SDS011;53438;48.898;2.308;2023-05-10T12:54:46;9.33;;;2.90;;
66581;SDS011;53438;48.898;2.308;2023-05-10T12:57:12;10.03;;;2.97;;
66581;SDS011;53438;48.898;2.308;2023-05-10T12:59:38;15.20;;;3.28;;
66581;SDS011;53438;48.898;2.308;2023-05-10T13:02:05;10.45;;;2.90;;
66581;SDS011;53438;48.898;2.308;2023-05-10T13:04:31;11.32;;;3.28;;
66581;SDS011;53438;48.898;2.308;2023-05-10T13:06:56;11.00;;;3.80;;
66581;SDS011;53438;48.898;2.308;2023-05-10T13:09:24;14.13;;;4.47;;
66581;SDS011;53438;48.898;2.308;2023-05-10T13:11:50;10.07;;;4.10;;
66581;SDS011;53438;48.898;2.308;2023-05-10T13:14:15;14.75;;;3.90;;
66581;SDS011;53438;48.898;2.308;2023-05-10T13:16:41;13.87;;;4.03;;
66581;SDS011;53438;48.898;2.308;2023-05-10T13:19:06;12.13;;;3.60;;
66581;SDS011;53438;48.898;2.308;2023-05-10T13:21:31;11.20;;;3.30;;
66581;SDS011;53438;48.898;2.308;2023-05-10T13:23:57;16.13;;;3.00;;
66581;SDS011;53438;48.898;2.308;2023-05-10T13:26:23;10.35;;;2.58;;
66581;SDS011;53438;48.898;2.308;2023-05-10T13:28:48;15.80;;;3.97;;
66581;SDS011;53438;48.898;2.308;2023-05-10T13:31:14;10.18;;;3.47;;
66581;SDS011;53438;48.898;2.308;2023-05-10T13:33:40;14.73;;;3.27;;
66581;SDS011;53438;48.898;2.308;2023-05-10T13:36:06;9.55;;;4.13;;
66581;SDS011;53438;48.898;2.308;2023-05-10T13:38:32;13.97;;;3.73;;
66581;SDS011;53438;48.898;2.308;2023-05-10T13:40:57;16.10;;;4.17;;
66581;SDS011;53438;48.898;2.308;2023-05-10T13:43:23;15.20;;;3.60;;
66581;SDS011;53438;48.898;2.308;2023-05-10T13:45:48;12.30;;;3.67;;
66581;SDS011;53438;48.898;2.308;2023-05-10T13:48:14;14.70;;;3.25;;
66581;SDS011;53438;48.898;2.308;2023-05-10T13:50:39;13.38;;;3.47;;
66581;SDS011;53438;48.898;2.308;2023-05-10T13:53:05;12.40;;;2.47;;
66581;SDS011;53438;48.898;2.308;2023-05-10T13:55:30;11.07;;;3.00;;
66581;SDS011;53438;48.898;2.308;2023-05-10T13:57:56;11.90;;;3.33;;
66581;SDS011;53438;48.898;2.308;2023-05-10T14:00:21;12.73;;;4.53;;
66581;SDS011;53438;48.898;2.308;2023-05-10T14:02:46;12.07;;;2.90;;
66581;SDS011;53438;48.898;2.308;2023-05-10T14:05:12;13.33;;;3.10;;
66581;SDS011;53438;48.898;2.308;2023-05-10T14:07:37;12.10;;;3.70;;
66581;SDS011;53438;48.898;2.308;2023-05-10T14:10:03;8.73;;;2.73;;
66581;SDS011;53438;48.898;2.308;2023-05-10T14:12:28;14.88;;;3.33;;
66581;SDS011;53438;48.898;2.308;2023-05-10T14:14:54;8.83;;;3.23;;
66581;SDS011;53438;48.898;2.308;2023-05-10T14:17:19;10.53;;;1.67;;
66581;SDS011;53438;48.898;2.308;2023-05-10T14:19:44;6.87;;;1.63;;
66581;SDS011;53438;48.898;2.308;2023-05-10T14:22:10;6.40;;;1.60;;
66581;SDS011;53438;48.898;2.308;2023-05-10T14:24:35;8.93;;;1.97;;
66581;SDS011;53438;48.898;2.308;2023-05-10T14:27:00;9.25;;;2.47;;
66581;SDS011;53438;48.898;2.308;2023-05-10T14:29:27;6.10;;;1.27;;
66581;SDS011;53438;48.898;2.308;2023-05-10T14:31:52;7.47;;;1.73;;
66581;SDS011;53438;48.898;2.308;2023-05-10T14:34:18;15.68;;;6.85;;
66581;SDS011;53438;48.898;2.308;2023-05-10T14:36:43;8.33;;;1.60;;
66581;SDS011;53438;48.898;2.308;2023-05-10T14:39:08;8.53;;;2.47;;
66581;SDS011;53438;48.898;2.308;2023-05-10T14:41:35;5.47;;;1.92;;
66581;SDS011;53438;48.898;2.308;2023-05-10T14:44:00;7.00;;;1.07;;
66581;SDS011;53438;48.898;2.308;2023-05-10T14:46:28;6.45;;;0.95;;
66581;SDS011;53438;48.898;2.308;2023-05-10T14:48:54;7.03;;;1.30;;
66581;SDS011;53438;48.898;2.308;2023-05-10T14:51:20;14.40;;;2.20;;
66581;SDS011;53438;48.898;2.308;2023-05-10T14:53:46;6.80;;;1.60;;
66581;SDS011;53438;48.898;2.308;2023-05-10T14:56:13;9.13;;;2.38;;
66581;SDS011;53438;48.898;2.308;2023-05-10T14:58:38;8.43;;;1.80;;
66581;SDS011;53438;48.898;2.308;2023-05-10T15:01:03;9.50;;;2.38;;
66581;SDS011;53438;48.898;2.308;2023-05-10T15:03:29;7.15;;;2.33;;
66581;SDS011;53438;48.898;2.308;2023-05-10T15:05:54;6.70;;;1.40;;
66581;SDS011;53438;48.898;2.308;2023-05-10T15:08:21;3.22;;;1.23;;
66581;SDS011;53438;48.898;2.308;2023-05-10T15:10:46;4.60;;;1.37;;
66581;SDS011;53438;48.898;2.308;2023-05-10T15:13:11;9.50;;;2.07;;
66581;SDS011;53438;48.898;2.308;2023-05-10T15:15:37;10.23;;;1.87;;
66581;SDS011;53438;48.898;2.308;2023-05-10T15:18:02;6.43;;;1.42;;
66581;SDS011;53438;48.898;2.308;2023-05-10T15:20:28;7.73;;;1.70;;
66581;SDS011;53438;48.898;2.308;2023-05-10T15:22:53;11.97;;;1.80;;
66581;SDS011;53438;48.898;2.308;2023-05-10T15:25:19;6.77;;;1.97;;
66581;SDS011;53438;48.898;2.308;2023-05-10T15:27:44;8.88;;;2.40;;
66581;SDS011;53438;48.898;2.308;2023-05-10T15:30:10;3.47;;;1.33;;
66581;SDS011;53438;48.898;2.308;2023-05-10T15:32:35;9.40;;;2.37;;
66581;SDS011;53438;48.898;2.308;2023-05-10T15:35:02;13.77;;;3.05;;
66581;SDS011;53438;48.898;2.308;2023-05-10T15:37:27;5.93;;;1.83;;
66581;SDS011;53438;48.898;2.308;2023-05-10T15:39:53;8.07;;;2.10;;
66581;SDS011;53438;48.898;2.308;2023-05-10T15:42:18;5.53;;;1.90;;
66581;SDS011;53438;48.898;2.308;2023-05-10T15:44:44;7.25;;;2.05;;
66581;SDS011;53438;48.898;2.308;2023-05-10T15:47:10;7.18;;;1.85;;
66581;SDS011;53438;48.898;2.308;2023-05-10T15:49:35;7.00;;;1.70;;
66581;SDS011;53438;48.898;2.308;2023-05-10T15:52:00;6.63;;;1.57;;
66581;SDS011;53438;48.898;2.308;2023-05-10T15:54:26;5.75;;;1.42;;
66581;SDS011;53438;48.898;2.308;2023-05-10T15:56:51;7.15;;;2.05;;
66581;SDS011;53438;48.898;2.308;2023-05-10T15:59:18;8.17;;;1.90;;
66581;SDS011;53438;48.898;2.308;2023-05-10T16:01:44;5.55;;;1.50;;
66581;SDS011;53438;48.898;2.308;2023-05-10T16:04:09;7.53;;;1.10;;
66581;SDS011;53438;48.898;2.308;2023-05-10T16:06:35;6.03;;;1.70;;
66581;SDS011;53438;48.898;2.308;2023-05-10T16:09:01;5.10;;;1.83;;
66581;SDS011;53438;48.898;2.308;2023-05-10T16:11:27;6.77;;;1.43;;
66581;SDS011;53438;48.898;2.308;2023-05-10T16:13:54;6.57;;;1.38;;
66581;SDS011;53438;48.898;2.308;2023-05-10T16:16:19;11.20;;;2.17;;
66581;SDS011;53438;48.898;2.308;2023-05-10T16:18:44;8.23;;;1.70;;
66581;SDS011;53438;48.898;2.308;2023-05-10T16:21:10;9.63;;;2.03;;
66581;SDS011;53438;48.898;2.308;2023-05-10T16:23:35;7.07;;;1.80;;
66581;SDS011;53438;48.898;2.308;2023-05-10T16:26:01;7.30;;;2.80;;
66581;SDS011;53438;48.898;2.308;2023-05-10T16:28:27;5.60;;;2.03;;
66581;SDS011;53438;48.898;2.308;2023-05-10T16:30:52;8.77;;;2.20;;
66581;SDS011;53438;48.898;2.308;2023-05-10T16:33:18;8.20;;;2.53;;
66581;SDS011;53438;48.898;2.308;2023-05-10T16:35:43;7.33;;;2.47;;
66581;SDS011;53438;48.898;2.308;2023-05-10T16:38:08;7.70;;;1.20;;
66581;SDS011;53438;48.898;2.308;2023-05-10T16:40:34;3.90;;;1.17;;
66581;SDS011;53438;48.898;2.308;2023-05-10T16:43:00;6.10;;;1.75;;
66581;SDS011;53438;48.898;2.308;2023-05-10T16:45:26;6.50;;;1.33;;
66581;SDS011;53438;48.898;2.308;2023-05-10T16:47:51;9.35;;;1.50;;
66581;SDS011;53438;48.898;2.308;2023-05-10T16:50:19;6.82;;;1.33;;
66581;SDS011;53438;48.898;2.308;2023-05-10T16:52:45;4.72;;;1.10;;
66581;SDS011;53438;48.898;2.308;2023-05-10T16:55:11;8.35;;;1.92;;
66581;SDS011;53438;48.898;2.308;2023-05-10T16:57:36;7.47;;;1.43;;
66581;SDS011;53438;48.898;2.308;2023-05-10T17:00:02;8.13;;;1.63;;
66581;SDS011;53438;48.898;2.308;2023-05-10T17:02:29;8.45;;;1.88;;
66581;SDS011;53438;48.898;2.308;2023-05-10T17:04:54;5.90;;;1.50;;
66581;SDS011;53438;48.898;2.308;2023-05-10T17:07:20;7.28;;;1.73;;
66581;SDS011;53438;48.898;2.308;2023-05-10T17:09:45;5.60;;;1.97;;
66581;SDS011;53438;48.898;2.308;2023-05-10T17:12:11;8.60;;;2.23;;
66581;SDS011;53438;48.898;2.308;2023-05-10T17:14:37;5.82;;;1.67;;
66581;SDS011;53438;48.898;2.308;2023-05-10T17:17:04;6.20;;;2.47;;
66581;SDS011;53438;48.898;2.308;2023-05-10T17:19:30;8.77;;;2.40;;
66581;SDS011;53438;48.898;2.308;2023-05-10T17:21:56;8.00;;;2.90;;
66581;SDS011;53438;48.898;2.308;2023-05-10T17:24:21;8.00;;;2.33;;
66581;SDS011;53438;48.898;2.308;2023-05-10T17:26:47;8.82;;;2.42;;
66581;SDS011;53438;48.898;2.308;2023-05-10T17:29:12;6.03;;;2.00;;
66581;SDS011;53438;48.898;2.308;2023-05-10T17:31:38;8.17;;;2.00;;
66581;SDS011;53438;48.898;2.308;2023-05-10T17:34:03;9.07;;;2.50;;
66581;SDS011;53438;48.898;2.308;2023-05-10T17:36:29;6.38;;;2.22;;
66581;SDS011;53438;48.898;2.308;2023-05-10T17:38:54;8.63;;;2.30;;
66581;SDS011;53438;48.898;2.308;2023-05-10T17:41:19;10.73;;;3.13;;
66581;SDS011;53438;48.898;2.308;2023-05-10T17:43:45;7.03;;;2.23;;
66581;SDS011;53438;48.898;2.308;2023-05-10T17:46:11;9.63;;;3.13;;
66581;SDS011;53438;48.898;2.308;2023-05-10T17:48:36;6.40;;;2.83;;
66581;SDS011;53438;48.898;2.308;2023-05-10T17:51:02;9.47;;;2.43;;
66581;SDS011;53438;48.898;2.308;2023-05-10T17:53:28;10.82;;;2.50;;
66581;SDS011;53438;48.898;2.308;2023-05-10T17:55:53;8.18;;;2.30;;